createdAt,value
2018-09-21T00:00:13.279Z,3.93
2018-09-21T00:02:44.954Z,4.13
2018-09-21T00:05:13.490Z,3.47
2018-09-21T00:07:42.169Z,3.67
2018-09-21T00:10:10.880Z,2.73
2018-09-21T00:12:39.418Z,3.00
2018-09-21T00:15:07.999Z,3.80
2018-09-21T00:17:36.688Z,3.20
2018-09-21T00:20:05.221Z,3.30
2018-09-21T00:22:33.764Z,3.30
2018-09-21T00:25:02.281Z,4.00
2018-09-21T00:27:30.835Z,3.20
2018-09-21T00:29:59.465Z,3.50
2018-09-21T00:32:28.028Z,3.50
2018-09-21T00:34:56.614Z,4.47
2018-09-21T00:37:25.229Z,3.00
2018-09-21T00:39:53.772Z,3.53
2018-09-21T00:42:22.289Z,3.57
2018-09-21T00:44:50.772Z,4.00
2018-09-21T00:47:19.404Z,3.93
2018-09-21T00:49:48.011Z,3.50
2018-09-21T00:52:16.561Z,3.37
2018-09-21T00:54:45.111Z,3.77
2018-09-21T00:57:13.688Z,3.67
2018-09-21T00:59:42.315Z,3.50
2018-09-21T01:02:10.901Z,3.93
2018-09-21T01:04:42.348Z,3.07
2018-09-21T01:07:12.195Z,3.23
2018-09-21T01:09:40.672Z,4.53
2018-09-21T01:12:09.356Z,3.40
2018-09-21T01:14:38.036Z,3.40
2018-09-21T01:17:06.711Z,3.43
2018-09-21T01:19:35.338Z,3.40
2018-09-21T01:22:04.515Z,3.20
2018-09-21T01:24:33.112Z,3.57
2018-09-21T01:27:01.700Z,3.77
2018-09-21T01:29:30.353Z,4.10
2018-09-21T01:31:58.869Z,3.73
2018-09-21T01:34:27.492Z,3.23
2018-09-21T01:36:56.104Z,3.70
2018-09-21T01:39:24.688Z,4.70
2018-09-21T01:41:53.274Z,3.67
2018-09-21T01:44:21.834Z,4.40
2018-09-21T01:46:51.073Z,3.80
2018-09-21T01:49:19.628Z,4.10
2018-09-21T01:51:48.180Z,4.20
2018-09-21T01:54:16.768Z,3.33
2018-09-21T01:56:45.339Z,3.93
2018-09-21T01:59:13.854Z,3.83
2018-09-21T02:01:42.396Z,4.77
2018-09-21T02:04:10.942Z,4.27
2018-09-21T02:06:39.548Z,4.17
2018-09-21T02:09:09.192Z,3.73
2018-09-21T02:11:37.822Z,4.07
2018-09-21T02:14:06.325Z,4.03
2018-09-21T02:16:34.959Z,3.23
2018-09-21T02:19:03.495Z,4.10
2018-09-21T02:21:32.106Z,4.43
2018-09-21T02:24:00.840Z,3.50
2018-09-21T02:26:29.503Z,4.00
2018-09-21T02:28:58.011Z,3.43
2018-09-21T02:31:26.671Z,4.03
2018-09-21T02:33:55.213Z,4.63
2018-09-21T02:36:23.802Z,4.50
2018-09-21T02:38:52.484Z,4.20
2018-09-21T02:41:21.004Z,4.00
2018-09-21T02:43:49.561Z,3.60
2018-09-21T02:46:18.098Z,4.30
2018-09-21T02:48:46.640Z,4.10
2018-09-21T02:51:15.343Z,3.63
2018-09-21T02:53:44.046Z,3.90
2018-09-21T02:56:12.705Z,4.03
2018-09-21T02:58:41.274Z,4.10
2018-09-21T03:01:09.941Z,3.97
2018-09-21T03:03:38.868Z,3.80
2018-09-21T03:06:07.490Z,3.53
2018-09-21T03:08:36.059Z,4.00
2018-09-21T03:11:04.637Z,5.17
2018-09-21T03:13:33.285Z,4.77
2018-09-21T03:16:01.804Z,4.83
2018-09-21T03:18:30.305Z,4.40
2018-09-21T03:20:58.816Z,5.00
2018-09-21T03:23:27.383Z,4.00
2018-09-21T03:25:55.962Z,4.70
2018-09-21T03:28:24.484Z,4.63
2018-09-21T03:30:53.102Z,4.20
2018-09-21T03:33:21.685Z,4.63
2018-09-21T03:35:50.779Z,4.23
2018-09-21T03:38:19.270Z,3.87
2018-09-21T03:40:47.857Z,6.23
2018-09-21T03:43:16.470Z,4.77
2018-09-21T03:45:45.040Z,4.07
2018-09-21T03:48:13.589Z,5.10
2018-09-21T03:50:42.287Z,4.70
2018-09-21T03:53:10.870Z,4.13
2018-09-21T03:55:39.455Z,4.50
2018-09-21T03:58:08.032Z,5.37
2018-09-21T04:00:36.565Z,3.50
2018-09-21T04:03:05.335Z,4.40
2018-09-21T04:05:33.837Z,5.07
2018-09-21T04:08:02.428Z,3.63
2018-09-21T04:10:31.055Z,4.07
2018-09-21T04:12:59.647Z,4.77
2018-09-21T04:15:28.185Z,3.83
2018-09-21T04:17:56.760Z,3.63
2018-09-21T04:20:25.340Z,4.50
2018-09-21T04:23:01.516Z,5.20
2018-09-21T04:25:30.753Z,4.47
2018-09-21T04:27:59.328Z,3.23
2018-09-21T04:30:28.435Z,4.43
2018-09-21T04:32:57.696Z,3.70
2018-09-21T04:35:26.581Z,4.43
2018-09-21T04:37:55.165Z,4.83
2018-09-21T04:40:23.829Z,4.77
2018-09-21T04:42:52.456Z,6.07
2018-09-21T04:45:21.010Z,4.33
2018-09-21T04:47:49.594Z,4.40
2018-09-21T04:50:18.117Z,4.43
2018-09-21T04:52:46.856Z,6.20
2018-09-21T04:55:15.424Z,4.37
2018-09-21T04:57:44.034Z,4.30
2018-09-21T05:00:12.586Z,4.80
2018-09-21T05:02:41.189Z,4.10
2018-09-21T05:05:09.799Z,4.07
2018-09-21T05:07:38.395Z,4.43
2018-09-21T05:10:07.001Z,4.73
2018-09-21T05:12:35.560Z,3.87
2018-09-21T05:15:04.229Z,5.40
2018-09-21T05:17:32.888Z,3.60
2018-09-21T05:20:01.497Z,3.83
2018-09-21T05:22:30.067Z,4.40
2018-09-21T05:24:58.640Z,3.90
2018-09-21T05:27:27.309Z,4.53
2018-09-21T05:29:56.212Z,5.13
2018-09-21T05:32:24.870Z,5.30
2018-09-21T05:34:53.551Z,5.00
2018-09-21T05:37:22.081Z,5.43
2018-09-21T05:39:50.663Z,4.10
2018-09-21T05:42:19.245Z,4.83
2018-09-21T05:44:47.866Z,5.40
2018-09-21T05:47:16.510Z,5.00
2018-09-21T05:49:45.041Z,5.37
2018-09-21T05:52:13.579Z,4.90
2018-09-21T05:54:42.123Z,5.50
2018-09-21T05:57:10.671Z,5.23
2018-09-21T05:59:39.225Z,4.90
2018-09-21T06:02:08.116Z,4.90
2018-09-21T06:04:36.656Z,5.30
2018-09-21T06:07:05.244Z,4.70
2018-09-21T06:09:33.769Z,4.67
2018-09-21T06:12:02.451Z,5.63
2018-09-21T06:14:31.033Z,4.70
2018-09-21T06:16:59.723Z,4.80
2018-09-21T06:19:28.305Z,5.30
2018-09-21T06:21:56.958Z,5.77
2018-09-21T06:24:25.605Z,6.00
2018-09-21T06:27:00.868Z,5.47
2018-09-21T06:29:29.490Z,5.10
2018-09-21T06:31:58.467Z,5.50
2018-09-21T06:34:27.088Z,4.53
2018-09-21T06:36:55.738Z,5.33
2018-09-21T06:39:24.341Z,5.43
2018-09-21T06:41:53.066Z,5.27
2018-09-21T06:44:21.569Z,4.33
2018-09-21T06:46:50.124Z,5.27
2018-09-21T06:49:18.706Z,4.80
2018-09-21T06:51:47.280Z,4.57
2018-09-21T06:54:15.817Z,4.27
2018-09-21T06:56:44.400Z,5.50
2018-09-21T06:59:12.961Z,4.90
2018-09-21T07:01:41.506Z,4.77
2018-09-21T07:04:10.210Z,5.00
2018-09-21T07:06:38.891Z,4.33
2018-09-21T07:09:12.803Z,4.63
2018-09-21T07:11:42.916Z,5.10
2018-09-21T07:14:12.414Z,4.53
2018-09-21T07:16:41.317Z,4.70
2018-09-21T07:19:10.075Z,5.20
2018-09-21T07:21:38.624Z,4.50
2018-09-21T07:24:07.159Z,4.90
2018-09-21T07:26:35.712Z,4.37
2018-09-21T07:29:04.283Z,4.40
2018-09-21T07:31:33.100Z,4.17
2018-09-21T07:34:01.802Z,4.10
2018-09-21T07:36:30.365Z,4.10
2018-09-21T07:38:59.021Z,4.07
2018-09-21T07:41:27.571Z,5.90
2018-09-21T07:43:56.163Z,3.27
2018-09-21T07:46:24.688Z,4.03
2018-09-21T07:48:53.230Z,3.90
2018-09-21T07:51:21.699Z,3.47
2018-09-21T07:53:50.226Z,2.90
2018-09-21T07:56:18.852Z,3.30
2018-09-21T07:58:47.471Z,3.30
2018-09-21T08:01:16.041Z,6.07
2018-09-21T08:03:44.620Z,3.10
2018-09-21T08:06:13.212Z,2.90
2018-09-21T08:08:41.865Z,2.23
2018-09-21T08:11:10.451Z,3.57
2018-09-21T08:13:39.023Z,5.60
2018-09-21T08:16:07.678Z,4.13
2018-09-21T08:18:36.311Z,3.37
2018-09-21T08:21:05.169Z,3.23
2018-09-21T08:23:33.680Z,2.63
2018-09-21T08:26:02.296Z,3.30
2018-09-21T08:28:30.861Z,2.80
2018-09-21T08:30:59.386Z,2.60
2018-09-21T08:33:27.956Z,1.90
2018-09-21T08:35:56.482Z,2.57
2018-09-21T08:38:24.961Z,3.03
2018-09-21T08:40:53.882Z,2.23
2018-09-21T08:43:22.490Z,2.93
2018-09-21T08:45:51.079Z,2.20
2018-09-21T08:48:19.663Z,2.53
2018-09-21T08:50:48.193Z,3.10
2018-09-21T08:53:16.762Z,3.30
2018-09-21T08:55:45.409Z,2.17
2018-09-21T08:58:13.962Z,2.23
2018-09-21T09:00:42.730Z,2.67
2018-09-21T09:03:11.738Z,2.00
2018-09-21T09:05:40.425Z,2.80
2018-09-21T09:08:09.041Z,2.67
2018-09-21T09:10:37.732Z,2.97
2018-09-21T09:13:06.389Z,4.43
2018-09-21T09:15:34.952Z,3.00
2018-09-21T09:18:03.564Z,4.23
2018-09-21T09:20:32.153Z,3.30
2018-09-21T09:23:00.816Z,3.17
2018-09-21T09:25:29.236Z,2.20
2018-09-21T09:27:57.770Z,1.80
2018-09-21T09:30:27.051Z,1.63
2018-09-21T09:32:55.601Z,2.30
2018-09-21T09:35:24.201Z,3.58
2018-09-21T09:37:52.839Z,3.42
2018-09-21T09:40:21.483Z,2.77
2018-09-21T09:42:50.160Z,2.73
2018-09-21T09:45:19.115Z,3.33
2018-09-21T09:47:47.744Z,3.40
2018-09-21T09:50:16.340Z,2.95
2018-09-21T09:52:44.899Z,2.90
2018-09-21T09:55:13.495Z,2.50
2018-09-21T09:57:42.076Z,3.30
2018-09-21T10:00:10.903Z,3.70
2018-09-21T10:02:39.413Z,2.60
2018-09-21T10:05:08.028Z,4.00
2018-09-21T10:07:37.482Z,2.90
2018-09-21T10:10:06.059Z,2.77
2018-09-21T10:12:34.735Z,2.93
2018-09-21T10:15:03.385Z,3.10
2018-09-21T10:17:32.613Z,2.57
2018-09-21T10:20:01.109Z,2.10
2018-09-21T10:22:29.814Z,2.10
2018-09-21T10:24:58.373Z,2.53
2018-09-21T10:27:27.106Z,2.43
2018-09-21T10:29:55.525Z,2.10
2018-09-21T10:32:24.079Z,2.70
2018-09-21T10:34:52.623Z,2.27
2018-09-21T10:37:21.264Z,2.80
2018-09-21T10:39:49.785Z,2.60
2018-09-21T10:42:18.384Z,2.03
2018-09-21T10:44:46.942Z,1.70
2018-09-21T10:47:15.493Z,2.50
2018-09-21T10:49:44.082Z,1.83
2018-09-21T10:52:12.698Z,2.63
2018-09-21T10:54:41.172Z,2.13
2018-09-21T10:57:09.993Z,2.60
2018-09-21T10:59:38.534Z,3.60
2018-09-21T11:02:06.889Z,2.10
2018-09-21T11:04:35.413Z,2.40
2018-09-21T11:07:03.999Z,2.00
2018-09-21T11:09:32.687Z,2.40
2018-09-21T11:12:01.261Z,1.57
2018-09-21T11:14:29.874Z,2.60
2018-09-21T11:16:58.487Z,2.13
2018-09-21T11:19:27.117Z,1.60
2018-09-21T11:21:55.692Z,2.60
2018-09-21T11:24:24.972Z,2.30
2018-09-21T11:26:53.789Z,2.07
2018-09-21T11:29:22.363Z,2.30
2018-09-21T11:31:50.923Z,2.43
2018-09-21T11:34:19.664Z,2.40
2018-09-21T11:36:48.232Z,2.60
2018-09-21T11:39:16.757Z,1.60
2018-09-21T11:41:45.353Z,2.90
2018-09-21T11:44:13.913Z,2.33
2018-09-21T11:46:42.517Z,2.63
2018-09-21T11:49:11.136Z,2.57
2018-09-21T11:51:39.719Z,2.80
2018-09-21T11:54:08.377Z,2.50
2018-09-21T11:56:36.974Z,3.20
2018-09-21T11:59:05.560Z,2.60
2018-09-21T12:01:34.466Z,2.70
2018-09-21T12:04:03.105Z,3.13
2018-09-21T12:06:31.669Z,3.07
2018-09-21T12:09:00.295Z,2.43
2018-09-21T12:11:28.855Z,3.20
2018-09-21T12:13:57.405Z,2.83
2018-09-21T12:16:26.176Z,2.23
2018-09-21T12:18:54.924Z,2.53
2018-09-21T12:21:23.635Z,2.23
2018-09-21T12:23:52.234Z,2.23
2018-09-21T12:26:20.727Z,3.93
2018-09-21T12:28:49.340Z,3.00
2018-09-21T12:31:17.921Z,2.10
2018-09-21T12:33:46.512Z,2.10
2018-09-21T12:36:15.279Z,2.30
2018-09-21T12:38:43.868Z,1.80
2018-09-21T12:41:12.535Z,1.60
2018-09-21T12:43:41.210Z,1.00
2018-09-21T12:46:14.990Z,1.60
2018-09-21T12:48:43.562Z,1.50
2018-09-21T12:51:12.337Z,1.20
2018-09-21T12:53:41.873Z,1.40
2018-09-21T12:56:10.435Z,1.00
2018-09-21T12:58:39.058Z,0.90
2018-09-21T13:01:07.776Z,0.80
2018-09-21T13:03:36.434Z,1.00
2018-09-21T13:06:05.023Z,0.77
2018-09-21T13:08:33.623Z,2.10
2018-09-21T13:11:02.147Z,1.10
2018-09-21T13:13:30.827Z,0.80
2018-09-21T13:15:59.529Z,0.97
2018-09-21T13:18:28.136Z,1.00
2018-09-21T13:20:56.690Z,0.60
2018-09-21T13:23:25.373Z,1.20
2018-09-21T13:25:53.972Z,1.27
2018-09-21T13:28:22.603Z,0.90
2018-09-21T13:30:51.315Z,1.00
2018-09-21T13:33:19.835Z,1.10
2018-09-21T13:35:48.860Z,0.73
2018-09-21T13:38:17.442Z,0.60
2018-09-21T13:40:46.154Z,1.00
2018-09-21T13:43:15.209Z,0.67
2018-09-21T13:45:43.799Z,0.90
2018-09-21T13:48:15.109Z,0.70
2018-09-21T13:50:43.895Z,0.80
2018-09-21T13:53:12.571Z,0.90
2018-09-21T13:55:41.487Z,0.93
2018-09-21T13:58:10.087Z,0.73
2018-09-21T14:00:38.676Z,1.13
2018-09-21T14:03:07.386Z,0.80
2018-09-21T14:05:36.119Z,0.73
2018-09-21T14:08:04.667Z,1.00
2018-09-21T14:10:33.244Z,0.97
2018-09-21T14:13:01.911Z,0.80
2018-09-21T14:15:30.509Z,1.13
2018-09-21T14:17:59.247Z,0.97
2018-09-21T14:20:27.794Z,1.03
2018-09-21T14:22:56.288Z,1.00
2018-09-21T14:25:24.860Z,1.60
2018-09-21T14:27:53.496Z,0.70
2018-09-21T14:30:22.099Z,1.53
2018-09-21T14:32:50.808Z,0.70
2018-09-21T14:35:19.742Z,0.80
2018-09-21T14:37:48.365Z,1.10
2018-09-21T14:40:17.143Z,1.10
2018-09-21T14:42:45.934Z,0.93
2018-09-21T14:45:14.644Z,1.30
2018-09-21T14:47:43.353Z,1.13
2018-09-21T14:50:12.005Z,0.90
2018-09-21T14:52:40.662Z,0.70
2018-09-21T14:55:09.837Z,0.80
2018-09-21T14:57:38.643Z,1.27
2018-09-21T15:00:07.391Z,0.90
2018-09-21T15:02:36.058Z,1.07
2018-09-21T15:05:06.794Z,0.80
2018-09-21T15:07:35.807Z,0.77
2018-09-21T15:10:04.555Z,0.97
2018-09-21T15:12:33.237Z,0.93
2018-09-21T15:15:02.260Z,1.20
2018-09-21T15:17:30.990Z,0.57
2018-09-21T15:19:59.611Z,0.80
2018-09-21T15:22:29.158Z,0.60
2018-09-21T15:24:57.836Z,1.47
2018-09-21T15:27:26.451Z,0.77
2018-09-21T15:29:55.072Z,1.33
2018-09-21T15:32:23.979Z,0.80
2018-09-21T15:34:52.738Z,0.63
2018-09-21T15:37:21.370Z,0.87
2018-09-21T15:39:50.365Z,1.10
2018-09-21T15:42:19.201Z,0.70
2018-09-21T15:44:47.925Z,1.40
2018-09-21T15:47:16.822Z,0.90
2018-09-21T15:49:45.446Z,1.20
2018-09-21T15:52:14.192Z,0.90
2018-09-21T15:54:42.912Z,0.67
2018-09-21T15:57:11.570Z,0.70
2018-09-21T15:59:40.269Z,1.00
2018-09-21T16:02:09.472Z,1.00
2018-09-21T16:04:38.098Z,0.90
2018-09-21T16:07:06.930Z,0.60
2018-09-21T16:09:35.515Z,1.73
2018-09-21T16:12:04.185Z,1.30
2018-09-21T16:14:33.367Z,0.73
2018-09-21T16:17:02.062Z,1.20
2018-09-21T16:19:30.865Z,0.80
2018-09-21T16:21:59.626Z,0.70
2018-09-21T16:24:29.000Z,0.83
2018-09-21T16:26:57.633Z,0.70
2018-09-21T16:29:26.304Z,0.90
2018-09-21T16:31:54.900Z,0.90
2018-09-21T16:34:23.715Z,1.00
2018-09-21T16:36:52.482Z,2.10
2018-09-21T16:39:21.245Z,1.17
2018-09-21T16:41:49.902Z,1.13
2018-09-21T16:44:18.717Z,1.17
2018-09-21T16:46:47.815Z,1.13
2018-09-21T16:49:16.612Z,1.13
2018-09-21T16:51:46.170Z,1.00
2018-09-21T16:54:14.779Z,0.80
2018-09-21T16:56:43.495Z,1.07
2018-09-21T16:59:12.146Z,1.07
2018-09-21T17:01:40.862Z,1.00
2018-09-21T17:04:09.508Z,2.23
2018-09-21T17:06:38.248Z,1.10
2018-09-21T17:09:09.373Z,1.03
2018-09-21T17:11:38.140Z,1.70
2018-09-21T17:14:07.353Z,1.20
2018-09-21T17:16:37.236Z,2.07
2018-09-21T17:19:05.995Z,1.10
2018-09-21T17:21:34.700Z,1.67
2018-09-21T17:24:03.458Z,0.90
2018-09-21T17:26:32.259Z,1.03
2018-09-21T17:29:00.908Z,1.10
2018-09-21T17:31:30.482Z,1.17
2018-09-21T17:33:59.152Z,1.23
2018-09-21T17:36:27.823Z,1.40
2018-09-21T17:38:56.504Z,1.30
2018-09-21T17:41:25.257Z,1.60
2018-09-21T17:43:54.394Z,1.23
2018-09-21T17:46:23.125Z,2.43
2018-09-21T17:48:51.917Z,1.27
2018-09-21T17:51:20.789Z,1.17
2018-09-21T17:53:49.710Z,0.90
2018-09-21T17:56:18.421Z,2.37
2018-09-21T17:58:47.146Z,1.37
2018-09-21T18:01:15.837Z,1.10
2018-09-21T18:03:44.771Z,1.30
2018-09-21T18:06:13.438Z,2.10
2018-09-21T18:08:42.059Z,0.97
2018-09-21T18:11:10.722Z,1.97
2018-09-21T18:13:39.382Z,1.30
2018-09-21T18:16:08.234Z,1.00
2018-09-21T18:18:37.020Z,1.13
2018-09-21T18:21:05.852Z,2.20
2018-09-21T18:23:34.600Z,1.17
2018-09-21T18:26:03.395Z,1.80
2018-09-21T18:28:32.104Z,1.13
2018-09-21T18:31:00.726Z,1.13
2018-09-21T18:33:29.419Z,1.60
2018-09-21T18:35:58.849Z,1.33
2018-09-21T18:38:27.701Z,0.97
2018-09-21T18:40:56.383Z,0.80
2018-09-21T18:43:25.099Z,1.10
2018-09-21T18:45:53.770Z,1.30
2018-09-21T18:48:22.491Z,1.17
2018-09-21T18:50:51.135Z,1.07
2018-09-21T18:53:19.810Z,0.70
2018-09-21T18:55:48.413Z,0.98
2018-09-21T18:58:17.176Z,1.35
2018-09-21T19:00:45.859Z,1.20
2018-09-21T19:03:14.675Z,1.12
2018-09-21T19:05:43.341Z,1.10
2018-09-21T19:08:11.971Z,1.07
2018-09-21T19:10:40.609Z,2.25
2018-09-21T19:13:09.315Z,1.10
2018-09-21T19:15:37.992Z,1.10
2018-09-21T19:18:06.797Z,1.30
2018-09-21T19:20:35.477Z,0.98
2018-09-21T19:23:04.122Z,1.55
2018-09-21T19:25:32.768Z,1.47
2018-09-21T19:28:01.523Z,1.50
2018-09-21T19:30:30.224Z,1.30
2018-09-21T19:32:58.952Z,1.30
2018-09-21T19:35:27.814Z,1.90
2018-09-21T19:37:56.679Z,1.82
2018-09-21T19:40:25.369Z,1.47
2018-09-21T19:42:54.296Z,2.05
2018-09-21T19:45:22.989Z,1.20
2018-09-21T19:47:51.434Z,2.02
2018-09-21T19:50:20.117Z,1.70
2018-09-21T19:52:48.772Z,1.77
2018-09-21T19:55:17.406Z,1.85
2018-09-21T19:57:46.042Z,1.87
2018-09-21T20:00:14.696Z,1.92
2018-09-21T20:02:43.369Z,1.98
2018-09-21T20:05:12.044Z,2.10
2018-09-21T20:07:40.711Z,2.12
2018-09-21T20:10:09.441Z,1.52
2018-09-21T20:12:38.107Z,3.17
2018-09-21T20:15:06.927Z,2.08
2018-09-21T20:17:35.504Z,2.00
2018-09-21T20:20:04.271Z,1.32
2018-09-21T20:22:32.970Z,1.25
2018-09-21T20:25:01.715Z,1.47
2018-09-21T20:27:30.442Z,1.72
2018-09-21T20:30:04.338Z,1.20
2018-09-21T20:33:37.742Z,1.80
2018-09-21T20:36:06.434Z,1.70
2018-09-21T20:38:35.122Z,1.92
2018-09-21T20:41:04.176Z,1.98
2018-09-21T20:43:33.183Z,2.22
2018-09-21T20:46:02.368Z,1.90
2018-09-21T20:48:31.023Z,1.98
2018-09-21T20:50:59.776Z,2.35
2018-09-21T20:53:28.539Z,2.17
2018-09-21T20:55:57.194Z,3.02
2018-09-21T20:58:25.854Z,2.55
2018-09-21T21:00:55.360Z,1.70
2018-09-21T21:03:24.014Z,2.00
2018-09-21T21:05:52.673Z,1.85
2018-09-21T21:08:21.432Z,1.45
2018-09-21T21:10:50.145Z,1.42
2018-09-21T21:13:18.751Z,1.10
2018-09-21T21:15:47.458Z,1.35
2018-09-21T21:18:16.156Z,1.55
2018-09-21T21:20:44.790Z,0.93
2018-09-21T21:23:13.370Z,1.35
2018-09-21T21:25:42.194Z,1.00
2018-09-21T21:28:10.947Z,1.00
2018-09-21T21:30:39.627Z,1.12
2018-09-21T21:33:08.393Z,2.10
2018-09-21T21:35:37.140Z,1.10
2018-09-21T21:38:05.702Z,1.45
2018-09-21T21:40:34.307Z,1.00
2018-09-21T21:43:02.920Z,1.25
2018-09-21T21:45:31.693Z,1.60
2018-09-21T21:48:00.419Z,1.40
2018-09-21T21:50:29.234Z,1.47
2018-09-21T21:52:57.860Z,1.72
2018-09-21T21:55:26.492Z,1.62
2018-09-21T21:57:55.245Z,1.82
2018-09-21T22:00:24.058Z,1.40
2018-09-21T22:02:52.661Z,2.17
2018-09-21T22:05:21.515Z,1.25
2018-09-21T22:07:50.180Z,2.65
2018-09-21T22:10:18.916Z,1.55
2018-09-21T22:12:52.949Z,1.92
2018-09-21T22:15:21.726Z,1.95
2018-09-21T22:17:50.577Z,1.95
2018-09-21T22:20:19.194Z,1.62
2018-09-21T22:22:47.921Z,1.80
2018-09-21T22:25:16.619Z,1.85
2018-09-21T22:27:45.301Z,1.57
2018-09-21T22:30:14.161Z,2.25
2018-09-21T22:32:42.999Z,1.80
2018-09-21T22:35:11.764Z,2.10
2018-09-21T22:37:40.401Z,1.92
2018-09-21T22:40:09.026Z,1.90
2018-09-21T22:42:44.987Z,1.40
2018-09-21T22:45:13.750Z,2.27
2018-09-21T22:47:42.645Z,1.42
2018-09-21T22:50:11.260Z,1.67
2018-09-21T22:52:39.849Z,1.72
2018-09-21T22:55:08.539Z,1.27
2018-09-21T22:57:37.085Z,1.87
2018-09-21T23:00:05.752Z,1.52
2018-09-21T23:02:34.476Z,1.72
2018-09-21T23:05:03.270Z,1.50
2018-09-21T23:07:32.048Z,1.42
2018-09-21T23:10:00.754Z,1.75
2018-09-21T23:12:29.410Z,1.50
2018-09-21T23:14:58.068Z,1.57
2018-09-21T23:17:26.650Z,1.47
2018-09-21T23:19:55.278Z,1.80
2018-09-21T23:22:23.895Z,1.40
2018-09-21T23:24:52.553Z,1.95
2018-09-21T23:27:21.237Z,2.08
2018-09-21T23:29:49.860Z,1.90
2018-09-21T23:32:18.650Z,1.30
2018-09-21T23:34:47.281Z,1.50
2018-09-21T23:37:15.943Z,1.50
2018-09-21T23:39:44.607Z,1.80
2018-09-21T23:42:13.157Z,1.50
2018-09-21T23:44:41.714Z,1.90
2018-09-21T23:47:10.377Z,1.05
2018-09-21T23:49:38.976Z,2.10
2018-09-21T23:52:07.585Z,2.02
2018-09-21T23:54:36.333Z,1.95
2018-09-21T23:57:05.014Z,1.82
2018-09-21T23:59:33.745Z,1.90
